createdAt,value
2023-03-13T00:02:04.158Z,3.65
2023-03-13T00:07:10.279Z,3.65
2023-03-13T00:12:12.750Z,3.47
2023-03-13T00:17:15.111Z,3.25
2023-03-13T00:22:19.022Z,3.47
2023-03-13T00:27:21.441Z,3.63
2023-03-13T00:32:24.082Z,3.60
2023-03-13T00:37:28.158Z,3.60
2023-03-13T00:42:30.630Z,3.83
2023-03-13T00:47:33.127Z,3.92
2023-03-13T00:52:37.150Z,4.13
2023-03-13T00:57:39.629Z,4.35
2023-03-13T01:02:42.965Z,5.03
2023-03-13T01:07:46.978Z,4.60
2023-03-13T01:12:49.474Z,4.85
2023-03-13T01:17:51.889Z,4.72
2023-03-13T01:22:55.887Z,4.97
2023-03-13T01:27:58.740Z,4.32
2023-03-13T01:33:01.188Z,4.75
2023-03-13T01:38:05.334Z,4.75
2023-03-13T01:43:26.589Z,5.00
2023-03-13T01:48:39.346Z,4.63
2023-03-13T01:53:47.636Z,5.18
2023-03-13T01:58:52.999Z,4.88
2023-03-13T02:03:58.073Z,4.80
2023-03-13T02:09:05.463Z,4.13
2023-03-13T02:14:08.233Z,4.00
2023-03-13T02:19:19.354Z,4.63
2023-03-13T02:24:33.399Z,4.78
2023-03-13T02:29:37.369Z,3.53
2023-03-13T02:34:42.524Z,4.35
2023-03-13T02:39:48.358Z,4.72
2023-03-13T02:44:52.473Z,3.75
2023-03-13T02:49:54.760Z,4.25
2023-03-13T02:55:01.633Z,3.60
2023-03-13T03:00:07.847Z,3.85
2023-03-13T03:05:11.653Z,4.22
2023-03-13T03:10:14.106Z,4.20
2023-03-13T03:15:20.846Z,4.10
2023-03-13T03:20:23.285Z,3.85
2023-03-13T03:25:25.714Z,3.83
2023-03-13T03:30:29.835Z,3.80
2023-03-13T03:35:32.353Z,4.38
2023-03-13T03:40:34.718Z,3.40
2023-03-13T03:45:38.684Z,2.60
2023-03-13T03:50:41.150Z,2.85
2023-03-13T03:55:43.447Z,2.88
2023-03-13T04:00:48.733Z,1.98
2023-03-13T04:05:51.253Z,2.30
2023-03-13T04:10:53.668Z,2.75
2023-03-13T04:15:57.533Z,1.45
2023-03-13T04:21:05.400Z,2.22
2023-03-13T04:26:07.820Z,1.80
2023-03-13T04:31:12.033Z,1.90
2023-03-13T04:36:14.604Z,1.27
2023-03-13T04:41:17.162Z,1.60
2023-03-13T04:46:21.233Z,1.20
2023-03-13T04:51:23.529Z,1.55
2023-03-13T04:56:42.374Z,1.25
2023-03-13T05:01:47.240Z,1.10
2023-03-13T05:06:49.534Z,1.00
2023-03-13T05:11:51.752Z,1.10
2023-03-13T05:16:55.604Z,1.40
2023-03-13T05:21:57.933Z,1.65
2023-03-13T05:27:00.242Z,1.23
2023-03-13T05:32:03.978Z,1.42
2023-03-13T05:37:06.690Z,1.40
2023-03-13T05:42:09.324Z,1.50
2023-03-13T05:47:14.389Z,1.52
2023-03-13T05:52:16.745Z,1.52
2023-03-13T05:57:19.099Z,1.38
2023-03-13T06:02:23.134Z,1.45
2023-03-13T06:07:26.937Z,1.23
2023-03-13T06:12:32.099Z,1.55
2023-03-13T06:17:36.094Z,1.05
2023-03-13T06:22:38.440Z,1.30
2023-03-13T06:27:41.703Z,1.35
2023-03-13T06:32:45.994Z,1.27
2023-03-13T06:37:48.560Z,1.20
2023-03-13T06:42:50.949Z,1.65
2023-03-13T06:47:55.616Z,1.65
2023-03-13T06:52:58.039Z,1.95
2023-03-13T06:58:00.424Z,1.67
2023-03-13T07:03:04.536Z,2.28
2023-03-13T07:08:07.219Z,1.40
2023-03-13T07:13:09.675Z,1.52
2023-03-13T07:18:13.805Z,2.03
2023-03-13T07:23:16.401Z,1.70
2023-03-13T07:28:18.874Z,2.08
2023-03-13T07:33:22.720Z,2.33
2023-03-13T07:38:25.347Z,2.70
2023-03-13T07:43:27.907Z,2.40
2023-03-13T07:48:34.056Z,2.80
2023-03-13T07:53:36.643Z,3.00
2023-03-13T07:58:41.306Z,2.47
2023-03-13T08:03:46.418Z,3.58
2023-03-13T08:08:49.228Z,3.40
2023-03-13T08:13:52.208Z,3.60
2023-03-13T08:18:58.662Z,3.10
2023-03-13T08:24:06.826Z,3.23
2023-03-13T08:29:11.822Z,2.78
2023-03-13T08:34:17.341Z,3.00
2023-03-13T08:39:22.455Z,2.72
2023-03-13T08:44:24.939Z,2.67
2023-03-13T08:49:28.851Z,2.03
2023-03-13T08:54:31.316Z,2.15
2023-03-13T08:59:33.759Z,2.50
2023-03-13T09:04:38.133Z,1.65
2023-03-13T09:09:40.556Z,1.40
2023-03-13T09:14:42.906Z,1.67
2023-03-13T09:19:59.433Z,1.40
2023-03-13T09:25:03.417Z,1.40
2023-03-13T09:30:07.391Z,1.20
2023-03-13T09:35:11.707Z,1.20
2023-03-13T09:40:17.257Z,1.52
2023-03-13T09:45:27.790Z,1.00
2023-03-13T09:50:34.917Z,1.38
2023-03-13T09:55:38.568Z,1.40
2023-03-13T10:00:43.821Z,1.20
2023-03-13T10:05:52.047Z,1.50
2023-03-13T10:11:01.189Z,1.60
2023-03-13T10:16:08.324Z,1.48
2023-03-13T10:21:18.142Z,1.10
2023-03-13T10:26:27.521Z,1.65
2023-03-13T10:31:33.385Z,1.38
2023-03-13T10:36:43.290Z,2.30
2023-03-13T10:41:48.825Z,1.73
2023-03-13T10:46:52.076Z,2.00
2023-03-13T10:52:01.180Z,1.48
2023-03-13T10:57:23.549Z,2.00
2023-03-13T11:02:32.464Z,1.50
2023-03-13T11:07:38.392Z,2.00
2023-03-13T11:12:46.023Z,1.50
2023-03-13T11:17:52.756Z,1.80
2023-03-13T11:23:15.811Z,2.10
2023-03-13T11:28:28.943Z,1.80
2023-03-13T11:33:45.025Z,1.88
2023-03-13T11:38:53.389Z,2.03
2023-03-13T11:44:17.355Z,2.15
2023-03-13T11:49:39.652Z,1.90
2023-03-13T11:55:13.007Z,1.80
2023-03-13T12:00:29.291Z,1.42
2023-03-13T12:05:41.868Z,1.73
2023-03-13T12:10:52.627Z,1.77
2023-03-13T12:15:57.827Z,2.30
2023-03-13T12:21:05.636Z,2.00
2023-03-13T12:26:14.191Z,1.85
2023-03-13T12:31:26.127Z,1.40
2023-03-13T12:36:36.693Z,1.50
2023-03-13T12:41:43.625Z,1.50
2023-03-13T12:46:48.693Z,1.30
2023-03-13T12:52:08.343Z,1.20
2023-03-13T12:57:22.433Z,1.17
2023-03-13T13:02:29.092Z,1.20
2023-03-13T13:07:34.028Z,1.65
2023-03-13T13:12:39.017Z,1.30
2023-03-13T13:17:50.669Z,1.52
2023-03-13T13:22:53.840Z,1.00
2023-03-13T13:28:24.359Z,1.38
2023-03-13T13:33:40.154Z,1.38
2023-03-13T13:38:45.754Z,1.77
2023-03-13T13:44:10.415Z,2.08
2023-03-13T13:49:18.826Z,2.08
2023-03-13T13:54:52.775Z,1.75
2023-03-13T14:00:03.512Z,2.22
2023-03-13T14:05:15.740Z,2.75
2023-03-13T14:10:37.201Z,2.67
2023-03-13T14:15:45.080Z,2.83
2023-03-13T14:21:02.024Z,2.42
2023-03-13T14:26:11.783Z,2.47
2023-03-13T14:31:28.765Z,2.53
2023-03-13T14:41:40.200Z,2.58
2023-03-13T14:46:44.356Z,3.20
2023-03-13T14:51:50.165Z,2.20
2023-03-13T14:57:12.870Z,2.10
2023-03-13T15:02:22.317Z,2.55
2023-03-13T15:07:26.727Z,2.42
2023-03-13T15:12:31.723Z,2.25
2023-03-13T15:17:35.790Z,3.13
2023-03-13T15:22:40.384Z,2.47
2023-03-13T15:27:42.966Z,2.60
2023-03-13T15:32:47.263Z,2.47
2023-03-13T15:37:50.379Z,2.25
2023-03-13T15:42:53.216Z,3.53
2023-03-13T15:47:57.157Z,2.95
2023-03-13T15:53:52.264Z,2.95
2023-03-13T15:59:19.311Z,2.60
2023-03-13T16:04:38.437Z,2.55
2023-03-13T16:09:49.120Z,2.63
2023-03-13T16:14:53.631Z,2.88
2023-03-13T16:25:09.639Z,2.88
2023-03-13T16:30:51.188Z,3.10
2023-03-13T16:42:27.116Z,4.00
2023-03-13T16:47:41.184Z,3.15
2023-03-13T16:52:44.744Z,3.15
2023-03-13T17:04:15.582Z,3.55
2023-03-13T17:09:27.784Z,3.13
2023-03-13T17:15:17.111Z,3.03
2023-03-13T17:21:06.110Z,3.22
2023-03-13T17:26:50.102Z,3.22
2023-03-13T17:32:07.051Z,3.13
2023-03-13T17:37:22.491Z,2.80
2023-03-13T17:42:35.605Z,2.70
2023-03-13T17:47:56.314Z,3.35
2023-03-13T17:53:01.296Z,3.78
2023-03-13T17:58:03.560Z,4.25
2023-03-13T18:03:07.059Z,3.35
2023-03-13T18:08:11.353Z,2.95
2023-03-13T18:13:13.522Z,3.50
2023-03-13T18:18:17.477Z,3.83
2023-03-13T18:23:19.623Z,4.00
2023-03-13T18:28:21.727Z,3.53
2023-03-13T18:33:25.258Z,3.08
2023-03-13T18:38:28.713Z,3.17
2023-03-13T18:43:30.920Z,3.67
2023-03-13T18:48:34.430Z,2.85
2023-03-13T18:53:36.538Z,3.42
2023-03-13T18:58:38.703Z,3.53
2023-03-13T19:03:42.673Z,3.25
2023-03-13T19:08:45.343Z,3.42
2023-03-13T19:13:47.839Z,4.25
2023-03-13T19:18:52.027Z,3.90
2023-03-13T19:23:54.799Z,3.65
2023-03-13T19:28:57.319Z,3.40
2023-03-13T19:34:00.813Z,3.58
2023-03-13T19:39:03.087Z,2.88
2023-03-13T19:44:05.404Z,3.17
2023-03-13T19:49:11.023Z,3.35
2023-03-13T19:54:13.767Z,2.92
2023-03-13T19:59:17.477Z,2.92
2023-03-13T20:04:21.015Z,3.35
2023-03-13T20:09:23.289Z,3.25
2023-03-13T20:14:25.439Z,3.45
2023-03-13T20:19:29.138Z,3.47
2023-03-13T20:24:32.559Z,3.30
2023-03-13T20:29:34.799Z,3.35
2023-03-13T20:34:38.482Z,3.28
2023-03-13T20:39:40.726Z,3.45
2023-03-13T20:44:42.800Z,4.40
2023-03-13T20:49:46.286Z,4.22
2023-03-13T20:54:48.558Z,3.72
2023-03-13T20:59:50.759Z,3.55
2023-03-13T21:04:54.327Z,3.90
2023-03-13T21:09:56.518Z,3.40
2023-03-13T21:14:58.737Z,3.17
2023-03-13T21:20:02.397Z,3.35
2023-03-13T21:25:05.342Z,3.38
2023-03-13T21:30:09.064Z,4.05
2023-03-13T21:35:14.171Z,3.85
2023-03-13T21:40:16.667Z,3.60
2023-03-13T21:45:18.982Z,3.80
2023-03-13T21:50:22.592Z,3.47
2023-03-13T21:55:25.150Z,4.25
2023-03-13T22:00:27.391Z,4.00
2023-03-13T22:05:31.055Z,4.50
2023-03-13T22:10:33.133Z,3.85
2023-03-13T22:15:35.343Z,3.45
2023-03-13T22:20:39.293Z,3.10
2023-03-13T22:25:42.695Z,3.38
2023-03-13T22:30:44.819Z,3.30
2023-03-13T22:35:51.155Z,3.35
2023-03-13T22:40:58.879Z,4.00
2023-03-13T22:46:01.815Z,3.83
2023-03-13T22:51:08.962Z,3.30
2023-03-13T23:01:15.128Z,3.28
2023-03-13T23:06:21.993Z,3.75
2023-03-13T23:11:24.078Z,3.75
2023-03-13T23:16:26.276Z,3.30
2023-03-13T23:21:29.889Z,3.47
2023-03-13T23:26:32.029Z,4.03
2023-03-13T23:31:34.187Z,3.50
2023-03-13T23:36:37.753Z,3.40
2023-03-13T23:41:39.851Z,3.08
2023-03-13T23:46:41.917Z,3.28
2023-03-13T23:51:45.512Z,3.95
2023-03-13T23:56:47.606Z,3.28
